createdAt,value
2022-11-16T00:00:00.354Z,55.3
2022-11-16T00:00:59.463Z,55.2
2022-11-16T00:02:02.741Z,55.3
2022-11-16T00:03:04.747Z,55.8
2022-11-16T00:04:08.025Z,55.9
2022-11-16T00:05:09.783Z,56.2
2022-11-16T00:06:11.675Z,56.3
2022-11-16T00:07:18.649Z,56.3
2022-11-16T00:08:20.647Z,56.4
2022-11-16T00:09:22.674Z,56.4
2022-11-16T00:10:24.670Z,56.7
2022-11-16T00:11:27.502Z,56.6
2022-11-16T00:12:30.436Z,56.6
2022-11-16T00:13:32.667Z,56.5
2022-11-16T00:14:34.645Z,56.6
2022-11-16T00:15:36.647Z,56.6
2022-11-16T00:16:38.709Z,56.7
2022-11-16T00:17:40.710Z,56.8
2022-11-16T00:18:42.747Z,56.8
2022-11-16T00:19:44.428Z,56.7
2022-11-16T00:20:46.959Z,56.6
2022-11-16T00:21:48.654Z,56.5
2022-11-16T00:22:51.766Z,56.7
2022-11-16T00:23:53.687Z,56.6
2022-11-16T00:24:56.137Z,56.6
2022-11-16T00:25:57.487Z,56.5
2022-11-16T00:26:59.666Z,56.2
2022-11-16T00:28:01.507Z,55.7
2022-11-16T00:29:03.648Z,56
2022-11-16T00:30:05.788Z,55.8
2022-11-16T00:31:08.435Z,55.5
2022-11-16T00:32:10.887Z,55.4
2022-11-16T00:33:12.430Z,55.3
2022-11-16T00:34:14.468Z,55.4
2022-11-16T00:35:16.568Z,55.5
2022-11-16T00:36:18.627Z,55.6
2022-11-16T00:37:20.666Z,55.7
2022-11-16T00:38:22.648Z,55.8
2022-11-16T00:39:24.607Z,55.9
2022-11-16T00:40:26.487Z,56
2022-11-16T00:41:28.588Z,56
2022-11-16T00:42:30.352Z,56.1
2022-11-16T00:43:32.667Z,55.6
2022-11-16T00:44:34.707Z,56
2022-11-16T00:45:36.708Z,56.2
2022-11-16T00:46:38.696Z,56.3
2022-11-16T00:47:40.586Z,56.3
2022-11-16T00:48:42.777Z,56.2
2022-11-16T00:49:44.506Z,56.2
2022-11-16T00:50:46.688Z,56.3
2022-11-16T00:51:48.936Z,56.2
2022-11-16T00:52:50.605Z,56.3
2022-11-16T00:53:52.672Z,56.3
2022-11-16T00:54:54.595Z,56.4
2022-11-16T00:55:56.630Z,56.3
2022-11-16T00:56:58.855Z,56.3
2022-11-16T00:58:00.496Z,56.4
2022-11-16T00:59:02.571Z,56.4
2022-11-16T01:00:04.709Z,56.3
2022-11-16T01:01:06.698Z,56.3
2022-11-16T01:02:08.661Z,56.3
2022-11-16T01:03:10.426Z,56.4
2022-11-16T01:04:12.420Z,56.4
2022-11-16T01:05:14.507Z,56.4
2022-11-16T01:06:16.687Z,56.4
2022-11-16T01:07:18.887Z,56.4
2022-11-16T01:08:20.647Z,56.5
2022-11-16T01:09:22.706Z,56.5
2022-11-16T01:10:24.841Z,56.5
2022-11-16T01:11:27.508Z,56.5
2022-11-16T01:12:29.626Z,56.5
2022-11-16T01:13:31.395Z,56.5
2022-11-16T01:14:33.709Z,56.6
2022-11-16T01:15:35.666Z,56.6
2022-11-16T01:16:38.795Z,56.6
2022-11-16T01:17:40.842Z,56.6
2022-11-16T01:18:42.755Z,56.6
2022-11-16T01:19:44.851Z,56.8
2022-11-16T01:20:47.449Z,57.2
2022-11-16T01:21:49.727Z,57.3
2022-11-16T01:22:51.686Z,57.1
2022-11-16T01:23:53.607Z,57.1
2022-11-16T01:24:55.872Z,56.9
2022-11-16T01:25:58.326Z,56.6
2022-11-16T01:27:00.466Z,56.6
2022-11-16T01:28:02.453Z,56.6
2022-11-16T01:29:04.731Z,56.6
2022-11-16T01:30:06.727Z,56.6
2022-11-16T01:31:09.576Z,56.6
2022-11-16T01:32:11.544Z,56.6
2022-11-16T01:33:13.751Z,56.5
2022-11-16T01:34:15.528Z,56.6
2022-11-16T01:35:17.572Z,56.6
2022-11-16T01:36:20.327Z,56.5
2022-11-16T01:37:22.647Z,56.5
2022-11-16T01:38:28.529Z,56.6
2022-11-16T01:39:27.028Z,55.8
2022-11-16T01:40:29.154Z,56.4
2022-11-16T01:41:30.429Z,56.5
2022-11-16T01:42:32.646Z,56.5
2022-11-16T01:43:35.828Z,56.5
2022-11-16T01:44:37.667Z,56.8
2022-11-16T01:45:40.228Z,57.2
2022-11-16T01:46:41.475Z,57.5
2022-11-16T01:47:43.437Z,57.6
2022-11-16T01:48:45.516Z,57.5
2022-11-16T01:49:47.413Z,57.2
2022-11-16T01:50:50.351Z,57
2022-11-16T01:51:52.746Z,56.9
2022-11-16T01:52:54.626Z,56.7
2022-11-16T01:53:56.407Z,56.6
2022-11-16T01:54:58.606Z,56.7
2022-11-16T01:56:01.055Z,56.7
2022-11-16T01:57:02.529Z,56.7
2022-11-16T01:58:04.706Z,56.7
2022-11-16T01:59:07.927Z,56.7
2022-11-16T02:00:09.766Z,56.7
2022-11-16T02:01:12.384Z,56.7
2022-11-16T02:02:14.626Z,56.6
2022-11-16T02:03:17.528Z,56.6
2022-11-16T02:07:20.607Z,56.3
2022-11-16T02:08:22.340Z,56.4
2022-11-16T02:09:24.347Z,56.5
2022-11-16T02:10:26.521Z,56.4
2022-11-16T02:11:28.364Z,56.3
2022-11-16T02:12:30.296Z,56.2
2022-11-16T02:13:32.295Z,56.2
2022-11-16T02:14:34.416Z,56.1
2022-11-16T02:15:36.436Z,56.1
2022-11-16T02:16:38.756Z,56.2
2022-11-16T02:17:40.243Z,55.4
2022-11-16T02:18:41.318Z,56.1
2022-11-16T02:19:43.196Z,56.2
2022-11-16T02:20:44.255Z,56.3
2022-11-16T02:21:45.636Z,56.4
2022-11-16T02:22:47.242Z,56.5
2022-11-16T02:23:48.237Z,56.6
2022-11-16T02:24:49.196Z,56.6
2022-11-16T02:25:50.196Z,56.6
2022-11-16T02:26:51.255Z,56.7
2022-11-16T02:27:52.395Z,56.5
2022-11-16T02:28:54.380Z,56.5
2022-11-16T02:29:56.362Z,56.4
2022-11-16T02:30:58.484Z,56.2
2022-11-16T02:32:00.337Z,56.2
2022-11-16T02:33:02.417Z,56.3
2022-11-16T02:34:04.434Z,56.3
2022-11-16T02:35:06.479Z,56.3
2022-11-16T02:36:08.394Z,56.2
2022-11-16T02:37:10.434Z,56.3
2022-11-16T02:38:12.414Z,56.2
2022-11-16T02:39:14.430Z,56.3
2022-11-16T02:40:16.675Z,56.3
2022-11-16T02:41:18.385Z,56.2
2022-11-16T02:42:20.433Z,56.3
2022-11-16T02:43:22.284Z,56.3
2022-11-16T02:44:24.383Z,56.3
2022-11-16T02:45:26.803Z,56.2
2022-11-16T02:46:28.642Z,56.1
2022-11-16T02:47:30.522Z,56.1
2022-11-16T02:48:33.104Z,56.1
2022-11-16T02:49:34.335Z,56.1
2022-11-16T02:50:36.603Z,56.3
2022-11-16T02:51:38.718Z,56.5
2022-11-16T02:52:40.254Z,56.6
2022-11-16T02:53:41.295Z,56.4
2022-11-16T02:54:42.294Z,56.7
2022-11-16T02:55:44.293Z,57
2022-11-16T02:56:45.223Z,57.1
2022-11-16T02:57:46.625Z,56.9
2022-11-16T02:58:48.447Z,56.7
2022-11-16T02:59:50.402Z,56.8
2022-11-16T03:00:52.521Z,56.7
2022-11-16T03:01:54.495Z,56.7
2022-11-16T03:02:56.237Z,56.8
2022-11-16T03:03:57.285Z,56.9
2022-11-16T03:04:58.585Z,56.9
2022-11-16T03:06:00.274Z,56.8
2022-11-16T03:07:01.702Z,56.7
2022-11-16T03:08:03.580Z,56.3
2022-11-16T03:09:05.588Z,56.6
2022-11-16T03:10:08.049Z,56.8
2022-11-16T03:11:09.396Z,56.8
2022-11-16T03:12:11.414Z,56.8
2022-11-16T03:13:13.683Z,56.8
2022-11-16T03:14:15.438Z,56.8
2022-11-16T03:15:17.218Z,56.8
2022-11-16T03:16:18.378Z,56.8
2022-11-16T03:17:20.855Z,56.7
2022-11-16T03:18:22.397Z,56.6
2022-11-16T03:19:24.155Z,56.6
2022-11-16T03:20:25.234Z,56.6
2022-11-16T03:21:26.161Z,56.8
2022-11-16T03:22:27.383Z,56.7
2022-11-16T03:23:29.323Z,56.7
2022-11-16T03:24:31.423Z,56.7
2022-11-16T03:25:33.387Z,56.6
2022-11-16T03:26:35.394Z,56.6
2022-11-16T03:27:37.394Z,56.5
2022-11-16T03:28:39.894Z,56.6
2022-11-16T03:29:41.595Z,56.7
2022-11-16T03:30:43.576Z,56.6
2022-11-16T03:32:52.414Z,57.1
2022-11-16T03:33:54.444Z,57
2022-11-16T03:34:56.442Z,56.8
2022-11-16T03:35:58.580Z,56.6
2022-11-16T03:37:00.255Z,56.3
2022-11-16T03:38:01.454Z,55.9
2022-11-16T03:39:03.494Z,55.6
2022-11-16T03:40:05.519Z,55.5
2022-11-16T03:41:07.994Z,55.2
2022-11-16T03:42:09.415Z,55.2
2022-11-16T03:43:11.384Z,55.3
2022-11-16T03:44:13.422Z,55.2
2022-11-16T03:45:15.297Z,55.3
2022-11-16T03:46:16.311Z,55.4
2022-11-16T03:47:17.245Z,55.5
2022-11-16T03:48:18.296Z,55.3
2022-11-16T03:49:19.380Z,55.3
2022-11-16T03:50:21.372Z,55.5
2022-11-16T03:51:23.435Z,55.5
2022-11-16T03:52:25.385Z,55.4
2022-11-16T03:53:27.336Z,55.4
2022-11-16T03:54:30.288Z,55.2
2022-11-16T03:55:31.427Z,55.1
2022-11-16T03:56:33.474Z,55.3
2022-11-16T03:57:35.434Z,55.2
2022-11-16T03:58:38.016Z,55.3
2022-11-16T03:59:39.462Z,55.5
2022-11-16T04:00:41.590Z,55.5
2022-11-16T04:01:44.984Z,55.1
2022-11-16T04:02:45.322Z,55.3
2022-11-16T04:03:47.393Z,55.2
2022-11-16T04:04:49.435Z,55.3
2022-11-16T04:05:51.408Z,55.2
2022-11-16T04:06:53.588Z,55.4
2022-11-16T04:07:55.542Z,55.5
2022-11-16T04:08:57.407Z,55.7
2022-11-16T04:09:59.302Z,55.6
2022-11-16T04:11:00.306Z,56.4
2022-11-16T04:12:01.650Z,56.6
2022-11-16T04:13:03.400Z,56.7
2022-11-16T04:14:09.029Z,56.6
2022-11-16T04:15:07.474Z,56.8
2022-11-16T04:16:09.615Z,56.8
2022-11-16T04:17:11.835Z,56.7
2022-11-16T04:18:13.301Z,56.7
2022-11-16T04:19:14.334Z,56.6
2022-11-16T04:20:15.382Z,56.6
2022-11-16T04:21:17.994Z,56.3
2022-11-16T04:22:19.462Z,56.6
2022-11-16T04:23:21.517Z,56.6
2022-11-16T04:24:23.440Z,56.7
2022-11-16T04:25:25.914Z,56.7
2022-11-16T04:26:27.899Z,56.8
2022-11-16T04:27:29.362Z,57.2
2022-11-16T04:28:32.023Z,57.3
2022-11-16T04:29:33.475Z,57.3
2022-11-16T04:30:36.297Z,57
2022-11-16T04:31:37.412Z,57.4
2022-11-16T04:32:39.274Z,57.3
2022-11-16T04:33:40.235Z,57.5
2022-11-16T04:34:41.374Z,57.6
2022-11-16T04:35:43.371Z,57.6
2022-11-16T04:36:45.396Z,57.5
2022-11-16T04:37:47.614Z,57.5
2022-11-16T04:38:49.656Z,57.3
2022-11-16T04:39:51.455Z,57.1
2022-11-16T04:40:53.514Z,57.2
2022-11-16T04:41:55.436Z,56.9
2022-11-16T04:42:57.579Z,56.6
2022-11-16T04:43:59.714Z,56.5
2022-11-16T04:45:01.297Z,56.4
2022-11-16T04:46:02.375Z,56
2022-11-16T04:47:04.437Z,56.4
2022-11-16T04:48:06.575Z,56.4
2022-11-16T04:49:08.476Z,56.4
2022-11-16T04:50:10.589Z,56.7
2022-11-16T04:51:12.256Z,57
2022-11-16T04:52:13.218Z,57.3
2022-11-16T04:53:14.317Z,57.5
2022-11-16T04:54:15.276Z,57.6
2022-11-16T04:55:16.405Z,58
2022-11-16T04:56:18.566Z,58.4
2022-11-16T04:57:20.522Z,58.8
2022-11-16T04:58:22.536Z,58.7
2022-11-16T04:59:24.575Z,58.6
2022-11-16T05:00:26.535Z,58.4
2022-11-16T05:01:28.500Z,58.4
2022-11-16T05:02:30.315Z,58.3
2022-11-16T05:03:31.335Z,58.2
2022-11-16T05:04:32.305Z,58.1
2022-11-16T05:05:33.496Z,58.4
2022-11-16T05:06:35.457Z,58.5
2022-11-16T05:07:37.392Z,58.5
2022-11-16T05:08:39.435Z,58.6
2022-11-16T05:09:41.527Z,58.7
2022-11-16T05:10:43.345Z,58.6
2022-11-16T05:11:44.322Z,58.6
2022-11-16T05:12:45.322Z,58.5
2022-11-16T05:13:46.926Z,58.9
2022-11-16T05:14:48.617Z,59.1
2022-11-16T05:15:51.435Z,59.3
2022-11-16T05:16:53.366Z,59.6
2022-11-16T05:17:56.104Z,59.7
2022-11-16T05:18:58.197Z,59.7
2022-11-16T05:19:59.891Z,59.7
2022-11-16T05:21:01.397Z,59.6
2022-11-16T05:22:03.443Z,59.4
2022-11-16T05:23:05.403Z,59.4
2022-11-16T05:24:08.133Z,59.4
2022-11-16T05:25:09.416Z,59.5
2022-11-16T05:26:11.436Z,59.6
2022-11-16T05:27:13.317Z,59.9
2022-11-16T05:28:14.340Z,59.8
2022-11-16T05:29:15.395Z,60
2022-11-16T05:30:17.980Z,60
2022-11-16T05:31:19.360Z,60
2022-11-16T05:32:21.536Z,59.8
2022-11-16T05:33:23.295Z,59.7
2022-11-16T05:34:24.277Z,59.6
2022-11-16T05:35:25.282Z,59.3
2022-11-16T05:36:26.347Z,59.3
2022-11-16T05:37:27.328Z,59.2
2022-11-16T05:38:28.396Z,59
2022-11-16T05:39:30.249Z,59.3
2022-11-16T05:40:31.379Z,59.6
2022-11-16T05:41:33.357Z,59.7
2022-11-16T05:42:35.237Z,60
2022-11-16T05:43:36.283Z,60.3
2022-11-16T05:44:37.345Z,60.4
2022-11-16T05:45:38.256Z,60.4
2022-11-16T05:46:39.456Z,60.2
2022-11-16T05:47:41.446Z,60.1
2022-11-16T05:48:44.261Z,60
2022-11-16T05:49:45.750Z,60.1
2022-11-16T05:50:47.435Z,60
2022-11-16T05:51:49.399Z,60.1
2022-11-16T05:52:51.456Z,60.3
2022-11-16T05:53:53.850Z,60.5
2022-11-16T05:54:55.695Z,60.7
2022-11-16T05:55:57.621Z,60.9
2022-11-16T05:56:59.619Z,60.9
2022-11-16T05:58:01.649Z,60.8
2022-11-16T05:59:03.341Z,61
2022-11-16T06:00:04.637Z,60.9
2022-11-16T06:01:06.539Z,60.9
2022-11-16T06:02:08.578Z,60.7
2022-11-16T06:03:10.478Z,60.9
2022-11-16T06:04:12.403Z,61.1
2022-11-16T06:05:14.404Z,61.2
2022-11-16T06:06:16.277Z,61.1
2022-11-16T06:07:17.386Z,61.1
2022-11-16T06:08:18.281Z,61.1
2022-11-16T06:09:19.256Z,61.2
2022-11-16T06:10:20.367Z,61.3
2022-11-16T06:11:21.321Z,61.5
2022-11-16T06:12:22.305Z,61.3
2022-11-16T06:13:23.596Z,61.5
2022-11-16T06:14:26.524Z,61.8
2022-11-16T06:15:28.517Z,61.9
2022-11-16T06:16:30.666Z,62.2
2022-11-16T06:17:32.336Z,62.1
2022-11-16T06:18:33.560Z,62
2022-11-16T06:19:34.335Z,62
2022-11-16T06:20:35.393Z,61.7
2022-11-16T06:21:38.516Z,61.4
2022-11-16T06:22:41.665Z,61.3
2022-11-16T06:23:43.538Z,61.3
2022-11-16T06:24:45.346Z,61.3
2022-11-16T06:25:46.362Z,61.3
2022-11-16T06:26:48.018Z,60.8
2022-11-16T06:27:49.498Z,60.7
2022-11-16T06:28:51.357Z,60.8
2022-11-16T06:29:53.219Z,61
2022-11-16T06:30:54.617Z,61.1
2022-11-16T06:31:56.544Z,61.1
2022-11-16T06:32:58.496Z,61.1
2022-11-16T06:34:00.435Z,61
2022-11-16T06:35:02.326Z,61.3
2022-11-16T06:36:03.569Z,61.4
2022-11-16T06:37:05.507Z,61.3
2022-11-16T06:38:07.762Z,61.1
2022-11-16T06:39:09.496Z,60.9
2022-11-16T06:40:11.506Z,60.7
2022-11-16T06:41:13.539Z,60.6
2022-11-16T06:42:15.537Z,60.8
2022-11-16T06:43:17.857Z,61.1
2022-11-16T06:44:19.736Z,61
2022-11-16T06:45:21.376Z,61
2022-11-16T06:46:22.299Z,60.9
2022-11-16T06:47:23.738Z,60.9
2022-11-16T06:48:25.537Z,60.7
2022-11-16T06:49:27.500Z,60.6
2022-11-16T06:50:29.718Z,60.6
2022-11-16T06:51:31.498Z,60.6
2022-11-16T06:52:33.667Z,60.6
2022-11-16T06:53:35.519Z,60.7
2022-11-16T06:54:37.496Z,60.7
2022-11-16T06:55:39.507Z,60.8
2022-11-16T06:56:41.516Z,60.9
2022-11-16T06:57:43.537Z,61
2022-11-16T06:58:45.556Z,60.6
2022-11-16T06:59:47.496Z,60.7
2022-11-16T07:00:49.457Z,60.5
2022-11-16T07:01:51.664Z,60.5
2022-11-16T07:02:53.803Z,60.3
2022-11-16T07:03:55.399Z,60.3
2022-11-16T07:05:00.640Z,60.3
2022-11-16T07:05:57.580Z,60.2
2022-11-16T07:06:59.683Z,59.9
2022-11-16T07:08:01.651Z,59.8
2022-11-16T07:09:04.140Z,59.8
2022-11-16T07:10:06.180Z,59.8
2022-11-16T07:11:07.404Z,60
2022-11-16T07:12:09.547Z,60.1
2022-11-16T07:13:11.677Z,60
2022-11-16T07:14:13.422Z,60.2
2022-11-16T07:15:16.616Z,60.4
2022-11-16T07:16:18.647Z,60.6
2022-11-16T07:17:20.369Z,60.9
2022-11-16T07:18:21.505Z,61.1
2022-11-16T07:19:23.479Z,61.2
2022-11-16T07:20:25.816Z,61.6
2022-11-16T07:21:27.604Z,61.8
2022-11-16T07:22:29.459Z,62
2022-11-16T07:23:31.508Z,62.1
2022-11-16T07:24:33.479Z,62.1
2022-11-16T07:25:35.537Z,62.3
2022-11-16T07:26:37.817Z,61.9
2022-11-16T07:27:39.321Z,61.5
2022-11-16T07:28:44.979Z,61.1
2022-11-16T07:29:43.248Z,60.8
2022-11-16T07:30:44.996Z,60.4
2022-11-16T07:31:46.417Z,60.3
2022-11-16T07:32:48.468Z,60.1
2022-11-16T07:33:50.697Z,59.8
2022-11-16T07:34:52.879Z,59.8
2022-11-16T07:35:54.637Z,59.8
2022-11-16T07:36:56.455Z,59.2
2022-11-16T07:37:58.314Z,59.8
2022-11-16T07:38:59.393Z,60.1
2022-11-16T07:40:00.302Z,60.2
2022-11-16T07:41:01.816Z,60.2
2022-11-16T07:42:03.722Z,60.2
2022-11-16T07:43:05.537Z,60
2022-11-16T07:44:11.862Z,60.2
2022-11-16T07:45:09.531Z,60.1
2022-11-16T07:47:13.496Z,60.2
2022-11-16T07:48:15.476Z,60.3
2022-11-16T07:49:18.031Z,60.2
2022-11-16T07:50:19.517Z,60.1
2022-11-16T07:51:21.638Z,59.9
2022-11-16T07:52:23.499Z,59.7
2022-11-16T07:53:25.618Z,60
2022-11-16T07:54:27.516Z,59.2
2022-11-16T07:55:29.549Z,59.7
2022-11-16T07:56:31.979Z,59.8
2022-11-16T07:57:33.487Z,59.7
2022-11-16T07:58:36.847Z,59.7
2022-11-16T07:59:38.472Z,59.6
2022-11-16T08:00:40.573Z,59.5
2022-11-16T08:01:42.640Z,58.5
2022-11-16T08:02:44.599Z,58.7
2022-11-16T08:03:46.920Z,58.6
2022-11-16T08:04:48.619Z,58.3
2022-11-16T08:05:50.616Z,58.2
2022-11-16T08:06:52.688Z,58.1
2022-11-16T08:07:54.589Z,58
2022-11-16T08:08:58.517Z,57.8
2022-11-16T08:09:58.575Z,57.6
2022-11-16T08:11:00.414Z,57.5
2022-11-16T08:12:01.374Z,57.4
2022-11-16T08:13:03.596Z,57.3
2022-11-16T08:14:05.596Z,57.1
2022-11-16T08:15:07.726Z,57
2022-11-16T08:16:09.385Z,56.9
2022-11-16T08:17:10.598Z,56.6
2022-11-16T08:18:12.870Z,56.3
2022-11-16T08:19:14.622Z,56.4
2022-11-16T08:20:16.931Z,56.3
2022-11-16T08:21:18.481Z,56.1
2022-11-16T08:22:20.676Z,56
2022-11-16T08:23:22.569Z,55.7
2022-11-16T08:24:24.854Z,55.7
2022-11-16T08:25:26.383Z,55.7
2022-11-16T08:26:27.397Z,55.7
2022-11-16T08:27:29.475Z,55.7
2022-11-16T08:28:31.973Z,55.2
2022-11-16T08:29:34.236Z,56
2022-11-16T08:30:35.477Z,56.3
2022-11-16T08:31:38.277Z,56.2
2022-11-16T08:32:39.358Z,56.1
2022-11-16T08:33:40.637Z,56.2
2022-11-16T08:34:42.625Z,56.1
2022-11-16T08:35:45.037Z,56.2
2022-11-16T08:36:47.094Z,56.3
2022-11-16T08:37:48.390Z,56.3
2022-11-16T08:38:49.569Z,55.8
2022-11-16T08:39:51.485Z,56.2
2022-11-16T08:40:53.497Z,56.4
2022-11-16T08:41:55.604Z,56.3
2022-11-16T08:42:57.718Z,56.2
2022-11-16T08:43:59.616Z,56.2
2022-11-16T08:45:01.304Z,56.3
2022-11-16T08:46:02.369Z,56
2022-11-16T08:47:04.534Z,56.2
2022-11-16T08:48:06.603Z,56.3
2022-11-16T08:49:08.806Z,56.3
2022-11-16T08:50:10.456Z,56.6
2022-11-16T08:51:20.685Z,57
2022-11-16T08:52:14.917Z,57.1
2022-11-16T08:53:17.231Z,57.1
2022-11-16T08:54:18.444Z,57.2
2022-11-16T08:55:19.460Z,57.3
2022-11-16T08:56:21.500Z,57.4
2022-11-16T08:57:23.548Z,57.4
2022-11-16T08:58:25.606Z,57.3
2022-11-16T08:59:27.727Z,57.1
2022-11-16T09:00:29.861Z,56.9
2022-11-16T09:01:32.713Z,56.8
2022-11-16T09:02:34.904Z,56.7
2022-11-16T09:03:36.708Z,56.7
2022-11-16T09:04:38.482Z,56.6
2022-11-16T09:05:40.636Z,56.6
2022-11-16T09:06:43.664Z,56.5
2022-11-16T09:07:45.758Z,56
2022-11-16T09:08:47.756Z,56.3
2022-11-16T09:09:49.480Z,56.4
2022-11-16T09:10:51.696Z,56.3
2022-11-16T09:11:53.927Z,56.2
2022-11-16T09:12:55.941Z,56.2
2022-11-16T09:13:58.881Z,56
2022-11-16T09:15:00.973Z,56.6
2022-11-16T09:16:02.802Z,56.7
2022-11-16T09:17:04.521Z,56.9
2022-11-16T09:18:06.636Z,56.8
2022-11-16T09:19:08.609Z,56.6
2022-11-16T09:20:11.116Z,56.6
2022-11-16T09:21:12.616Z,56.5
2022-11-16T09:22:14.760Z,56.6
2022-11-16T09:23:19.771Z,56.7
2022-11-16T09:24:17.524Z,56.8
2022-11-16T09:25:19.603Z,56.8
2022-11-16T09:26:22.453Z,56.6
2022-11-16T09:27:24.378Z,56.5
2022-11-16T09:28:25.577Z,56.3
2022-11-16T09:29:27.657Z,56.3
2022-11-16T09:30:30.237Z,56.3
2022-11-16T09:31:31.796Z,56.1
2022-11-16T09:32:33.796Z,56.1
2022-11-16T09:33:35.988Z,56.1
2022-11-16T09:34:37.636Z,56
2022-11-16T09:35:40.476Z,55.8
2022-11-16T09:36:42.619Z,56
2022-11-16T09:37:44.621Z,56.3
2022-11-16T09:39:48.516Z,56.4
2022-11-16T09:40:50.675Z,56.7
2022-11-16T09:41:52.616Z,56.8
2022-11-16T09:42:54.596Z,56.7
2022-11-16T09:43:56.676Z,56.5
2022-11-16T09:44:58.656Z,56.4
2022-11-16T09:46:00.789Z,56.2
2022-11-16T09:47:02.676Z,56.2
2022-11-16T09:48:04.518Z,56.2
2022-11-16T09:49:17.087Z,56.1
2022-11-16T09:50:09.640Z,55.9
2022-11-16T09:51:11.796Z,55.7
2022-11-16T09:52:13.617Z,55.3
2022-11-16T09:53:15.694Z,55.5
2022-11-16T09:54:17.951Z,55.6
2022-11-16T09:55:19.581Z,55.5
2022-11-16T09:56:23.291Z,55.4
2022-11-16T09:57:24.525Z,55.3
2022-11-16T09:58:26.535Z,55.1
2022-11-16T09:59:28.849Z,55.1
2022-11-16T10:00:31.292Z,55
2022-11-16T10:01:32.535Z,55
2022-11-16T10:02:34.577Z,55
2022-11-16T10:03:36.875Z,55.1
2022-11-16T10:04:38.763Z,55.3
2022-11-16T10:05:40.675Z,55.4
2022-11-16T10:06:42.788Z,55.3
2022-11-16T10:07:44.615Z,54.9
2022-11-16T10:08:46.589Z,55.2
2022-11-16T10:09:49.219Z,55.4
2022-11-16T10:10:50.830Z,55.6
2022-11-16T10:11:52.691Z,55.9
2022-11-16T10:12:54.482Z,56
2022-11-16T10:13:57.908Z,56
2022-11-16T10:14:57.676Z,56
2022-11-16T10:15:59.496Z,56
2022-11-16T10:17:01.459Z,56.3
2022-11-16T10:18:02.497Z,57
2022-11-16T10:19:03.491Z,58.4
2022-11-16T10:20:04.565Z,59
2022-11-16T10:21:05.429Z,59.1
2022-11-16T10:22:06.525Z,59.1
2022-11-16T10:23:08.567Z,58.8
2022-11-16T10:24:10.892Z,58
2022-11-16T10:25:12.604Z,58.5
2022-11-16T10:26:14.385Z,58.1
2022-11-16T10:27:19.204Z,57.5
2022-11-16T10:28:16.969Z,57.2
2022-11-16T10:29:18.491Z,57.1
2022-11-16T10:30:19.582Z,57.1
2022-11-16T10:31:20.524Z,57
2022-11-16T10:32:22.544Z,56.5
2022-11-16T10:33:24.599Z,56.6
2022-11-16T10:34:26.553Z,56.7
2022-11-16T10:35:28.596Z,56.6
2022-11-16T10:36:32.039Z,56.5
2022-11-16T10:37:34.037Z,55.9
2022-11-16T10:38:36.032Z,55.9
2022-11-16T10:39:37.679Z,56.1
2022-11-16T10:40:39.836Z,56
2022-11-16T10:41:41.636Z,56
2022-11-16T10:42:43.537Z,56
2022-11-16T10:43:45.636Z,56.2
2022-11-16T10:44:47.942Z,56.3
2022-11-16T10:45:49.682Z,56.1
2022-11-16T10:46:51.624Z,56.2
2022-11-16T10:47:53.880Z,56.3
2022-11-16T10:48:55.949Z,56.5
2022-11-16T10:49:57.603Z,56.4
2022-11-16T10:50:59.557Z,56.2
2022-11-16T10:52:01.477Z,56.7
2022-11-16T10:53:02.553Z,57.6
2022-11-16T10:54:04.745Z,58.1
2022-11-16T10:55:06.656Z,58.4
2022-11-16T10:56:09.016Z,58.7
2022-11-16T10:57:11.341Z,58.7
2022-11-16T10:58:13.004Z,58.5
2022-11-16T10:59:14.631Z,58.5
2022-11-16T11:00:21.100Z,58.2
2022-11-16T11:01:18.715Z,58.2
2022-11-16T11:02:20.558Z,58.1
2022-11-16T11:03:23.275Z,57.3
2022-11-16T11:04:24.667Z,56.5
2022-11-16T11:05:26.640Z,56.3
2022-11-16T11:06:28.616Z,56.2
2022-11-16T11:07:30.908Z,56.1
2022-11-16T11:08:32.581Z,56
2022-11-16T11:09:34.877Z,55.9
2022-11-16T11:10:37.605Z,55.8
2022-11-16T11:11:39.794Z,55.9
2022-11-16T11:12:41.980Z,55.9
2022-11-16T11:13:44.076Z,55.7
2022-11-16T11:14:45.636Z,55.7
2022-11-16T11:15:47.544Z,55.6
2022-11-16T11:16:49.595Z,55.4
2022-11-16T11:17:51.615Z,55.1
2022-11-16T11:18:54.847Z,55.1
2022-11-16T11:19:56.468Z,55
2022-11-16T11:20:58.069Z,55
2022-11-16T11:21:59.556Z,54.9
2022-11-16T11:23:01.446Z,54.9
2022-11-16T11:24:29.588Z,54.8
2022-11-16T11:25:04.711Z,55.1
2022-11-16T11:26:07.802Z,55.2
2022-11-16T11:27:09.556Z,55.3
2022-11-16T11:28:11.676Z,55.1
2022-11-16T11:29:13.790Z,55.2
2022-11-16T11:30:15.718Z,55.2
2022-11-16T11:31:17.716Z,55.2
2022-11-16T11:32:24.358Z,55.2
2022-11-16T11:33:22.470Z,55
2022-11-16T11:34:23.538Z,55.3
2022-11-16T11:35:24.444Z,55.6
2022-11-16T11:36:26.386Z,55.4
2022-11-16T11:37:28.416Z,55.4
2022-11-16T11:38:30.515Z,55.2
2022-11-16T11:39:31.625Z,55.1
2022-11-16T11:40:32.532Z,55
2022-11-16T11:41:33.619Z,55
2022-11-16T11:42:34.618Z,55.6
2022-11-16T11:43:37.059Z,55.6
2022-11-16T11:44:38.596Z,55.4
2022-11-16T11:45:41.377Z,55.3
2022-11-16T11:47:18.594Z,56.1
2022-11-16T11:48:00.682Z,56.7
2022-11-16T11:48:46.496Z,57.1
2022-11-16T11:49:47.737Z,57.4
2022-11-16T11:50:50.339Z,57.5
2022-11-16T11:51:52.104Z,57.3
2022-11-16T11:52:53.736Z,57.5
2022-11-16T11:53:55.684Z,57.3
2022-11-16T11:54:57.530Z,56.5
2022-11-16T11:55:58.732Z,55.9
2022-11-16T11:57:00.745Z,55.5
2022-11-16T11:58:02.757Z,56.2
2022-11-16T11:59:04.737Z,56.6
2022-11-16T12:00:06.799Z,56.7
2022-11-16T12:01:08.696Z,56.8
2022-11-16T12:02:11.078Z,57.2
2022-11-16T12:03:12.881Z,57.2
2022-11-16T12:04:15.417Z,56.4
2022-11-16T12:05:16.660Z,55.9
2022-11-16T12:06:18.652Z,55.7
2022-11-16T12:07:20.830Z,55.4
2022-11-16T12:08:22.679Z,55.1
2022-11-16T12:09:24.756Z,55
2022-11-16T12:10:26.518Z,55.2
2022-11-16T12:11:27.455Z,55.2
2022-11-16T12:12:28.620Z,55.1
2022-11-16T12:13:30.498Z,55.3
2022-11-16T12:14:31.797Z,55.4
2022-11-16T12:15:33.617Z,56.4
2022-11-16T12:16:36.103Z,56.6
2022-11-16T12:17:37.811Z,56.4
2022-11-16T12:18:39.717Z,56.7
2022-11-16T12:19:41.721Z,57
2022-11-16T12:20:44.856Z,56.8
2022-11-16T12:21:47.915Z,57.1
2022-11-16T12:22:49.490Z,57.7
2022-11-16T12:23:50.759Z,58.1
2022-11-16T12:24:53.336Z,58.3
2022-11-16T12:25:55.150Z,58.4
2022-11-16T12:26:56.595Z,58.6
2022-11-16T12:27:58.686Z,58.2
2022-11-16T12:29:01.615Z,58.3
2022-11-16T12:30:03.611Z,58.3
2022-11-16T12:31:06.254Z,58.4
2022-11-16T12:32:07.681Z,58.5
2022-11-16T12:33:09.676Z,59
2022-11-16T12:34:11.865Z,59.2
2022-11-16T12:35:13.655Z,58.9
2022-11-16T12:36:15.675Z,58.9
2022-11-16T12:37:17.575Z,58.9
2022-11-16T12:38:21.857Z,58.9
2022-11-16T12:39:19.775Z,58.6
2022-11-16T12:40:22.121Z,58.4
2022-11-16T12:41:23.735Z,58.4
2022-11-16T12:42:25.591Z,58.4
2022-11-16T12:43:27.615Z,58.6
2022-11-16T12:44:30.384Z,58.7
2022-11-16T12:45:33.094Z,58.7
2022-11-16T12:46:34.777Z,58.7
2022-11-16T12:47:36.715Z,58.6
2022-11-16T12:48:38.616Z,58.8
2022-11-16T12:49:40.655Z,58.9
2022-11-16T12:50:42.667Z,59.1
2022-11-16T12:51:44.776Z,59.1
2022-11-16T12:52:47.255Z,59
2022-11-16T12:53:48.619Z,58.9
2022-11-16T12:55:18.926Z,58.8
2022-11-16T12:55:52.816Z,58.8
2022-11-16T12:56:54.676Z,59.3
2022-11-16T12:57:57.318Z,59.6
2022-11-16T12:58:58.698Z,59.7
2022-11-16T13:00:01.303Z,59.9
2022-11-16T13:01:02.583Z,60.1
2022-11-16T13:02:03.558Z,60
2022-11-16T13:03:04.956Z,60.3
2022-11-16T13:04:06.931Z,59.8
2022-11-16T13:05:09.646Z,60
2022-11-16T13:06:11.635Z,59.9
2022-11-16T13:07:13.802Z,59.8
2022-11-16T13:08:16.975Z,59.6
2022-11-16T13:09:18.615Z,59.4
2022-11-16T13:10:20.720Z,59.2
2022-11-16T13:11:23.056Z,59.2
2022-11-16T13:12:25.115Z,59.1
2022-11-16T13:13:36.213Z,59.2
2022-11-16T13:14:28.777Z,59.2
2022-11-16T13:15:31.395Z,59
2022-11-16T13:16:33.004Z,59.2
2022-11-16T13:17:35.477Z,59.4
2022-11-16T13:18:36.823Z,59.3
2022-11-16T13:19:38.895Z,59.3
2022-11-16T13:20:40.651Z,59.2
2022-11-16T13:21:42.696Z,59.2
2022-11-16T13:22:44.756Z,59.1
2022-11-16T13:23:47.439Z,59.1
2022-11-16T13:24:48.578Z,59.1
2022-11-16T13:25:49.516Z,58.8
2022-11-16T13:26:50.685Z,58.7
2022-11-16T13:27:52.654Z,58.5
2022-11-16T13:28:54.648Z,57.8
2022-11-16T13:29:56.782Z,56.7
2022-11-16T13:30:58.704Z,57.1
2022-11-16T13:32:01.082Z,57.5
2022-11-16T13:33:03.217Z,58
2022-11-16T13:34:04.655Z,58.9
2022-11-16T13:35:06.805Z,59.5
2022-11-16T13:36:08.675Z,59.4
2022-11-16T13:37:10.674Z,59.4
2022-11-16T13:38:12.975Z,59.4
2022-11-16T13:39:18.842Z,59.6
2022-11-16T13:40:15.584Z,60
2022-11-16T13:41:16.478Z,59.9
2022-11-16T13:42:17.855Z,60
2022-11-16T13:43:19.617Z,59.7
2022-11-16T13:44:21.726Z,59.3
2022-11-16T13:45:24.330Z,59.1
2022-11-16T13:46:53.927Z,58.8
2022-11-16T13:47:27.684Z,58
2022-11-16T13:48:30.315Z,57.6
2022-11-16T13:49:31.805Z,57.5
2022-11-16T13:50:37.392Z,57.2
2022-11-16T13:51:34.495Z,57.1
2022-11-16T13:52:55.494Z,56.6
2022-11-16T13:54:42.984Z,56.8
2022-11-16T13:54:44.927Z,56.9